Augusta Springs, Virginia
Current Conditions -  °F | °C
As of 8:55 AM on Friday 24 Oct 2014 (Local Time) from KW13 Reporting Station
Clear Clear  
Wind Chill:   Ceiling: Unl
Heat Index:   Visibility: 10mi
Dew Point:   Wind: 6mph
Humidity: 73%   Direction: 240°WSW
Pressure: 30.06"   Gusts: NA
Location:  38.1°N, 79.32°W
Report Text: KW13 241255Z AUTO 24005KT 10SM CLR 09/04 A3006 RMK AO1 T00860041
Loading
Personal Weather Stations






























Interactive Weather Map
Tropical Storm Tracking
New forecast layout! Learn more

10-Day Weather Forecast

Advertisements
Track Severe Weather on mobile